sensor_id;sensor_type;location;lat;lon;timestamp;P1;durP1;ratioP1;P2;durP2;ratioP2
68870;SDS011;55906;52.278;6.808;2022-08-06T00:01:03;4.70;;;2.90;;
68870;SDS011;55906;52.278;6.808;2022-08-06T00:03:29;5.68;;;3.08;;
68870;SDS011;55906;52.278;6.808;2022-08-06T00:05:56;4.33;;;2.67;;
68870;SDS011;55906;52.278;6.808;2022-08-06T00:08:23;5.18;;;3.05;;
68870;SDS011;55906;52.278;6.808;2022-08-06T00:10:49;4.55;;;3.28;;
68870;SDS011;55906;52.278;6.808;2022-08-06T00:13:17;4.13;;;2.97;;
68870;SDS011;55906;52.278;6.808;2022-08-06T00:15:44;4.47;;;3.00;;
68870;SDS011;55906;52.278;6.808;2022-08-06T00:18:11;4.23;;;2.87;;
68870;SDS011;55906;52.278;6.808;2022-08-06T00:20:37;4.28;;;3.25;;
68870;SDS011;55906;52.278;6.808;2022-08-06T00:23:04;5.32;;;3.20;;
68870;SDS011;55906;52.278;6.808;2022-08-06T00:25:30;4.45;;;2.85;;
68870;SDS011;55906;52.278;6.808;2022-08-06T00:27:57;4.10;;;3.40;;
68870;SDS011;55906;52.278;6.808;2022-08-06T00:30:25;5.67;;;3.00;;
68870;SDS011;55906;52.278;6.808;2022-08-06T00:32:51;5.00;;;3.17;;
68870;SDS011;55906;52.278;6.808;2022-08-06T00:35:20;5.38;;;3.10;;
68870;SDS011;55906;52.278;6.808;2022-08-06T00:37:46;5.45;;;3.10;;
68870;SDS011;55906;52.278;6.808;2022-08-06T00:40:13;5.57;;;3.38;;
68870;SDS011;55906;52.278;6.808;2022-08-06T00:42:41;4.03;;;2.90;;
68870;SDS011;55906;52.278;6.808;2022-08-06T00:45:08;5.68;;;3.58;;
68870;SDS011;55906;52.278;6.808;2022-08-06T00:47:36;4.75;;;3.47;;
68870;SDS011;55906;52.278;6.808;2022-08-06T00:50:02;7.40;;;3.42;;
68870;SDS011;55906;52.278;6.808;2022-08-06T00:52:29;4.50;;;3.42;;
68870;SDS011;55906;52.278;6.808;2022-08-06T00:54:56;4.53;;;3.17;;
68870;SDS011;55906;52.278;6.808;2022-08-06T00:57:22;4.85;;;3.30;;
68870;SDS011;55906;52.278;6.808;2022-08-06T00:59:49;7.97;;;3.38;;
68870;SDS011;55906;52.278;6.808;2022-08-06T01:02:15;4.22;;;2.90;;
68870;SDS011;55906;52.278;6.808;2022-08-06T01:04:43;5.85;;;3.15;;
68870;SDS011;55906;52.278;6.808;2022-08-06T01:07:10;6.97;;;3.70;;
68870;SDS011;55906;52.278;6.808;2022-08-06T01:09:36;4.30;;;3.47;;
68870;SDS011;55906;52.278;6.808;2022-08-06T01:12:03;5.38;;;3.50;;
68870;SDS011;55906;52.278;6.808;2022-08-06T01:14:30;5.78;;;3.35;;
68870;SDS011;55906;52.278;6.808;2022-08-06T01:16:57;4.45;;;3.40;;
68870;SDS011;55906;52.278;6.808;2022-08-06T01:19:30;4.93;;;3.10;;
68870;SDS011;55906;52.278;6.808;2022-08-06T01:22:13;5.20;;;3.30;;
68870;SDS011;55906;52.278;6.808;2022-08-06T01:25:00;4.13;;;3.20;;
68870;SDS011;55906;52.278;6.808;2022-08-06T01:27:42;6.18;;;3.42;;
68870;SDS011;55906;52.278;6.808;2022-08-06T01:30:13;4.30;;;3.03;;
68870;SDS011;55906;52.278;6.808;2022-08-06T01:32:47;7.83;;;3.53;;
68870;SDS011;55906;52.278;6.808;2022-08-06T01:35:21;5.38;;;3.47;;
68870;SDS011;55906;52.278;6.808;2022-08-06T01:37:53;5.57;;;3.80;;
68870;SDS011;55906;52.278;6.808;2022-08-06T01:40:26;5.13;;;4.05;;
68870;SDS011;55906;52.278;6.808;2022-08-06T01:42:56;5.13;;;3.38;;
68870;SDS011;55906;52.278;6.808;2022-08-06T01:45:25;4.53;;;3.13;;
68870;SDS011;55906;52.278;6.808;2022-08-06T01:47:55;5.55;;;3.70;;
68870;SDS011;55906;52.278;6.808;2022-08-06T01:50:26;5.63;;;3.95;;
68870;SDS011;55906;52.278;6.808;2022-08-06T01:52:57;7.28;;;4.07;;
68870;SDS011;55906;52.278;6.808;2022-08-06T01:58:49;5.97;;;3.80;;
68870;SDS011;55906;52.278;6.808;2022-08-06T02:01:18;5.20;;;3.92;;
68870;SDS011;55906;52.278;6.808;2022-08-06T02:03:49;4.80;;;3.08;;
68870;SDS011;55906;52.278;6.808;2022-08-06T02:06:21;5.50;;;3.40;;
68870;SDS011;55906;52.278;6.808;2022-08-06T02:08:53;8.05;;;3.20;;
68870;SDS011;55906;52.278;6.808;2022-08-06T02:11:21;5.50;;;3.70;;
68870;SDS011;55906;52.278;6.808;2022-08-06T02:13:49;4.95;;;3.45;;
68870;SDS011;55906;52.278;6.808;2022-08-06T02:16:19;5.85;;;3.47;;
68870;SDS011;55906;52.278;6.808;2022-08-06T02:18:48;7.43;;;3.63;;
68870;SDS011;55906;52.278;6.808;2022-08-06T02:21:18;6.88;;;3.55;;
68870;SDS011;55906;52.278;6.808;2022-08-06T02:23:47;5.23;;;3.23;;
68870;SDS011;55906;52.278;6.808;2022-08-06T02:26:15;4.40;;;3.00;;
68870;SDS011;55906;52.278;6.808;2022-08-06T02:28:45;4.55;;;3.10;;
68870;SDS011;55906;52.278;6.808;2022-08-06T02:31:16;5.20;;;3.83;;
68870;SDS011;55906;52.278;6.808;2022-08-06T02:33:43;4.93;;;3.30;;
68870;SDS011;55906;52.278;6.808;2022-08-06T02:36:11;4.93;;;3.40;;
68870;SDS011;55906;52.278;6.808;2022-08-06T02:38:45;4.75;;;3.20;;
68870;SDS011;55906;52.278;6.808;2022-08-06T02:41:17;5.55;;;3.47;;
68870;SDS011;55906;52.278;6.808;2022-08-06T02:43:49;4.45;;;3.08;;
68870;SDS011;55906;52.278;6.808;2022-08-06T02:46:21;3.90;;;3.08;;
68870;SDS011;55906;52.278;6.808;2022-08-06T02:48:52;5.00;;;3.43;;
68870;SDS011;55906;52.278;6.808;2022-08-06T02:51:25;4.90;;;3.00;;
68870;SDS011;55906;52.278;6.808;2022-08-06T02:53:56;4.50;;;3.15;;
68870;SDS011;55906;52.278;6.808;2022-08-06T02:56:27;4.40;;;3.30;;
68870;SDS011;55906;52.278;6.808;2022-08-06T02:58:57;4.57;;;3.00;;
68870;SDS011;55906;52.278;6.808;2022-08-06T03:01:29;3.70;;;2.83;;
68870;SDS011;55906;52.278;6.808;2022-08-06T03:03:59;4.68;;;2.92;;
68870;SDS011;55906;52.278;6.808;2022-08-06T03:06:28;4.18;;;3.20;;
68870;SDS011;55906;52.278;6.808;2022-08-06T03:08:59;4.15;;;3.00;;
68870;SDS011;55906;52.278;6.808;2022-08-06T03:11:29;4.35;;;3.13;;
68870;SDS011;55906;52.278;6.808;2022-08-06T03:13:57;4.43;;;3.07;;
68870;SDS011;55906;52.278;6.808;2022-08-06T03:16:26;4.25;;;2.90;;
68870;SDS011;55906;52.278;6.808;2022-08-06T03:18:58;4.35;;;3.10;;
68870;SDS011;55906;52.278;6.808;2022-08-06T03:21:25;4.60;;;2.90;;
68870;SDS011;55906;52.278;6.808;2022-08-06T03:23:54;4.28;;;2.90;;
68870;SDS011;55906;52.278;6.808;2022-08-06T03:26:23;3.97;;;2.67;;
68870;SDS011;55906;52.278;6.808;2022-08-06T03:28:51;3.72;;;2.70;;
68870;SDS011;55906;52.278;6.808;2022-08-06T03:31:19;4.05;;;3.00;;
68870;SDS011;55906;52.278;6.808;2022-08-06T03:33:48;4.20;;;2.97;;
68870;SDS011;55906;52.278;6.808;2022-08-06T03:36:17;3.83;;;2.83;;
68870;SDS011;55906;52.278;6.808;2022-08-06T03:38:46;3.90;;;2.87;;
68870;SDS011;55906;52.278;6.808;2022-08-06T03:41:16;4.97;;;3.30;;
68870;SDS011;55906;52.278;6.808;2022-08-06T03:43:44;3.70;;;2.80;;
68870;SDS011;55906;52.278;6.808;2022-08-06T03:46:11;4.53;;;2.90;;
68870;SDS011;55906;52.278;6.808;2022-08-06T03:48:42;4.35;;;3.17;;
68870;SDS011;55906;52.278;6.808;2022-08-06T03:51:12;4.00;;;2.67;;
68870;SDS011;55906;52.278;6.808;2022-08-06T03:53:42;5.10;;;3.10;;
68870;SDS011;55906;52.278;6.808;2022-08-06T03:56:13;4.75;;;3.30;;
68870;SDS011;55906;52.278;6.808;2022-08-06T03:58:42;5.10;;;3.60;;
68870;SDS011;55906;52.278;6.808;2022-08-06T04:01:10;3.80;;;3.10;;
68870;SDS011;55906;52.278;6.808;2022-08-06T04:03:40;3.87;;;3.00;;
68870;SDS011;55906;52.278;6.808;2022-08-06T04:06:07;4.00;;;3.20;;
68870;SDS011;55906;52.278;6.808;2022-08-06T04:08:37;4.43;;;3.75;;
68870;SDS011;55906;52.278;6.808;2022-08-06T04:11:05;4.28;;;3.33;;
68870;SDS011;55906;52.278;6.808;2022-08-06T04:13:32;6.00;;;3.80;;
68870;SDS011;55906;52.278;6.808;2022-08-06T04:15:59;9.70;;;4.90;;
68870;SDS011;55906;52.278;6.808;2022-08-06T04:18:27;6.00;;;4.10;;
68870;SDS011;55906;52.278;6.808;2022-08-06T04:20:55;4.90;;;3.78;;
68870;SDS011;55906;52.278;6.808;2022-08-06T04:23:24;4.50;;;3.75;;
68870;SDS011;55906;52.278;6.808;2022-08-06T04:25:53;4.63;;;3.97;;
68870;SDS011;55906;52.278;6.808;2022-08-06T04:28:23;4.77;;;3.60;;
68870;SDS011;55906;52.278;6.808;2022-08-06T04:30:51;4.45;;;3.50;;
68870;SDS011;55906;52.278;6.808;2022-08-06T04:33:20;4.90;;;4.28;;
68870;SDS011;55906;52.278;6.808;2022-08-06T04:35:48;4.63;;;3.40;;
68870;SDS011;55906;52.278;6.808;2022-08-06T04:38:15;4.13;;;3.30;;
68870;SDS011;55906;52.278;6.808;2022-08-06T04:40:43;5.93;;;3.43;;
68870;SDS011;55906;52.278;6.808;2022-08-06T04:43:12;4.82;;;3.58;;
68870;SDS011;55906;52.278;6.808;2022-08-06T04:45:40;5.10;;;3.63;;
68870;SDS011;55906;52.278;6.808;2022-08-06T04:48:08;7.18;;;4.32;;
68870;SDS011;55906;52.278;6.808;2022-08-06T04:50:36;5.35;;;4.22;;
68870;SDS011;55906;52.278;6.808;2022-08-06T04:53:04;5.40;;;4.10;;
68870;SDS011;55906;52.278;6.808;2022-08-06T04:55:31;6.20;;;4.32;;
68870;SDS011;55906;52.278;6.808;2022-08-06T04:57:58;5.82;;;4.50;;
68870;SDS011;55906;52.278;6.808;2022-08-06T05:00:26;6.38;;;4.90;;
68870;SDS011;55906;52.278;6.808;2022-08-06T05:02:53;5.20;;;4.10;;
68870;SDS011;55906;52.278;6.808;2022-08-06T05:05:19;6.47;;;4.00;;
68870;SDS011;55906;52.278;6.808;2022-08-06T05:07:49;7.72;;;4.85;;
68870;SDS011;55906;52.278;6.808;2022-08-06T05:10:18;7.97;;;5.40;;
68870;SDS011;55906;52.278;6.808;2022-08-06T05:12:46;6.65;;;4.80;;
68870;SDS011;55906;52.278;6.808;2022-08-06T05:15:19;4.80;;;3.90;;
68870;SDS011;55906;52.278;6.808;2022-08-06T05:17:51;6.87;;;3.87;;
68870;SDS011;55906;52.278;6.808;2022-08-06T05:20:23;5.60;;;4.05;;
68870;SDS011;55906;52.278;6.808;2022-08-06T05:22:53;5.07;;;3.95;;
68870;SDS011;55906;52.278;6.808;2022-08-06T05:25:23;4.85;;;3.83;;
68870;SDS011;55906;52.278;6.808;2022-08-06T05:27:50;5.18;;;3.67;;
68870;SDS011;55906;52.278;6.808;2022-08-06T05:30:18;6.17;;;4.00;;
68870;SDS011;55906;52.278;6.808;2022-08-06T05:32:45;5.38;;;3.47;;
68870;SDS011;55906;52.278;6.808;2022-08-06T05:35:14;5.68;;;4.32;;
68870;SDS011;55906;52.278;6.808;2022-08-06T05:37:41;7.20;;;3.80;;
68870;SDS011;55906;52.278;6.808;2022-08-06T05:40:08;5.65;;;3.97;;
68870;SDS011;55906;52.278;6.808;2022-08-06T05:42:35;4.53;;;3.67;;
68870;SDS011;55906;52.278;6.808;2022-08-06T05:45:02;5.30;;;3.83;;
68870;SDS011;55906;52.278;6.808;2022-08-06T05:47:34;5.00;;;3.60;;
68870;SDS011;55906;52.278;6.808;2022-08-06T05:50:04;6.25;;;4.28;;
68870;SDS011;55906;52.278;6.808;2022-08-06T05:52:36;5.90;;;3.88;;
68870;SDS011;55906;52.278;6.808;2022-08-06T05:55:11;5.87;;;3.87;;
68870;SDS011;55906;52.278;6.808;2022-08-06T05:57:42;5.38;;;4.05;;
68870;SDS011;55906;52.278;6.808;2022-08-06T06:00:14;5.53;;;3.92;;
68870;SDS011;55906;52.278;6.808;2022-08-06T06:02:44;5.63;;;4.03;;
68870;SDS011;55906;52.278;6.808;2022-08-06T06:05:13;5.50;;;4.28;;
68870;SDS011;55906;52.278;6.808;2022-08-06T06:07:42;5.37;;;4.00;;
68870;SDS011;55906;52.278;6.808;2022-08-06T06:10:09;5.43;;;3.90;;
68870;SDS011;55906;52.278;6.808;2022-08-06T06:12:38;4.80;;;3.72;;
68870;SDS011;55906;52.278;6.808;2022-08-06T06:15:06;4.40;;;3.30;;
68870;SDS011;55906;52.278;6.808;2022-08-06T06:17:55;6.72;;;3.80;;
68870;SDS011;55906;52.278;6.808;2022-08-06T06:20:41;5.83;;;3.60;;
68870;SDS011;55906;52.278;6.808;2022-08-06T06:23:17;4.95;;;3.42;;
68870;SDS011;55906;52.278;6.808;2022-08-06T06:25:51;6.00;;;3.50;;
68870;SDS011;55906;52.278;6.808;2022-08-06T06:28:28;7.25;;;3.60;;
68870;SDS011;55906;52.278;6.808;2022-08-06T06:31:00;5.97;;;3.60;;
68870;SDS011;55906;52.278;6.808;2022-08-06T06:33:34;5.40;;;3.37;;
68870;SDS011;55906;52.278;6.808;2022-08-06T06:36:10;6.72;;;3.70;;
68870;SDS011;55906;52.278;6.808;2022-08-06T06:39:00;5.65;;;3.72;;
68870;SDS011;55906;52.278;6.808;2022-08-06T06:41:32;4.05;;;2.80;;
68870;SDS011;55906;52.278;6.808;2022-08-06T06:44:05;4.85;;;3.45;;
68870;SDS011;55906;52.278;6.808;2022-08-06T06:46:38;6.00;;;3.03;;
68870;SDS011;55906;52.278;6.808;2022-08-06T06:49:11;4.20;;;3.22;;
68870;SDS011;55906;52.278;6.808;2022-08-06T06:51:43;6.22;;;3.40;;
68870;SDS011;55906;52.278;6.808;2022-08-06T06:54:16;6.45;;;3.35;;
68870;SDS011;55906;52.278;6.808;2022-08-06T06:56:47;4.70;;;3.15;;
68870;SDS011;55906;52.278;6.808;2022-08-06T06:59:15;5.30;;;3.13;;
68870;SDS011;55906;52.278;6.808;2022-08-06T07:01:44;4.80;;;3.08;;
68870;SDS011;55906;52.278;6.808;2022-08-06T07:04:13;5.10;;;3.10;;
68870;SDS011;55906;52.278;6.808;2022-08-06T07:06:42;4.10;;;2.80;;
68870;SDS011;55906;52.278;6.808;2022-08-06T07:09:14;3.97;;;2.50;;
68870;SDS011;55906;52.278;6.808;2022-08-06T07:11:44;6.07;;;2.57;;
68870;SDS011;55906;52.278;6.808;2022-08-06T07:14:12;4.38;;;2.33;;
68870;SDS011;55906;52.278;6.808;2022-08-06T07:16:40;4.68;;;2.70;;
68870;SDS011;55906;52.278;6.808;2022-08-06T07:19:10;5.72;;;3.10;;
68870;SDS011;55906;52.278;6.808;2022-08-06T07:21:39;3.80;;;2.60;;
68870;SDS011;55906;52.278;6.808;2022-08-06T07:24:07;5.73;;;2.30;;
68870;SDS011;55906;52.278;6.808;2022-08-06T07:26:36;5.00;;;2.00;;
68870;SDS011;55906;52.278;6.808;2022-08-06T07:29:03;5.63;;;2.10;;
68870;SDS011;55906;52.278;6.808;2022-08-06T07:31:31;4.55;;;2.40;;
68870;SDS011;55906;52.278;6.808;2022-08-06T07:33:57;4.28;;;2.20;;
68870;SDS011;55906;52.278;6.808;2022-08-06T07:36:26;3.73;;;1.90;;
68870;SDS011;55906;52.278;6.808;2022-08-06T07:38:58;5.22;;;2.53;;
68870;SDS011;55906;52.278;6.808;2022-08-06T07:41:27;6.55;;;2.03;;
68870;SDS011;55906;52.278;6.808;2022-08-06T07:43:58;3.75;;;2.00;;
68870;SDS011;55906;52.278;6.808;2022-08-06T07:46:28;3.80;;;2.00;;
68870;SDS011;55906;52.278;6.808;2022-08-06T07:49:01;3.97;;;1.90;;
68870;SDS011;55906;52.278;6.808;2022-08-06T07:51:31;3.13;;;1.73;;
68870;SDS011;55906;52.278;6.808;2022-08-06T07:54:00;3.63;;;1.88;;
68870;SDS011;55906;52.278;6.808;2022-08-06T07:56:28;3.95;;;1.80;;
68870;SDS011;55906;52.278;6.808;2022-08-06T07:58:55;3.17;;;1.70;;
68870;SDS011;55906;52.278;6.808;2022-08-06T08:01:25;4.03;;;2.00;;
68870;SDS011;55906;52.278;6.808;2022-08-06T08:03:53;3.70;;;1.60;;
68870;SDS011;55906;52.278;6.808;2022-08-06T08:06:38;3.30;;;1.92;;
68870;SDS011;55906;52.278;6.808;2022-08-06T08:09:06;3.50;;;1.65;;
68870;SDS011;55906;52.278;6.808;2022-08-06T08:11:37;3.25;;;1.50;;
68870;SDS011;55906;52.278;6.808;2022-08-06T08:14:08;2.80;;;1.50;;
68870;SDS011;55906;52.278;6.808;2022-08-06T08:16:36;3.42;;;1.60;;
68870;SDS011;55906;52.278;6.808;2022-08-06T08:19:18;3.92;;;1.70;;
68870;SDS011;55906;52.278;6.808;2022-08-06T08:21:47;3.45;;;1.40;;
68870;SDS011;55906;52.278;6.808;2022-08-06T08:24:13;3.50;;;1.45;;
68870;SDS011;55906;52.278;6.808;2022-08-06T08:26:41;3.00;;;1.30;;
68870;SDS011;55906;52.278;6.808;2022-08-06T08:29:11;3.85;;;1.55;;
68870;SDS011;55906;52.278;6.808;2022-08-06T08:31:38;3.80;;;1.70;;
68870;SDS011;55906;52.278;6.808;2022-08-06T08:34:04;3.55;;;1.67;;
68870;SDS011;55906;52.278;6.808;2022-08-06T08:36:33;3.50;;;1.80;;
68870;SDS011;55906;52.278;6.808;2022-08-06T08:39:00;3.47;;;1.50;;
68870;SDS011;55906;52.278;6.808;2022-08-06T08:41:28;5.15;;;1.80;;
68870;SDS011;55906;52.278;6.808;2022-08-06T08:44:04;3.53;;;1.60;;
68870;SDS011;55906;52.278;6.808;2022-08-06T08:46:36;4.22;;;1.60;;
68870;SDS011;55906;52.278;6.808;2022-08-06T08:49:06;3.85;;;1.73;;
68870;SDS011;55906;52.278;6.808;2022-08-06T08:51:36;4.07;;;1.60;;
68870;SDS011;55906;52.278;6.808;2022-08-06T08:54:07;4.07;;;1.30;;
68870;SDS011;55906;52.278;6.808;2022-08-06T08:56:35;3.65;;;1.45;;
68870;SDS011;55906;52.278;6.808;2022-08-06T08:59:03;3.90;;;1.27;;
68870;SDS011;55906;52.278;6.808;2022-08-06T09:01:30;3.20;;;1.20;;
68870;SDS011;55906;52.278;6.808;2022-08-06T09:03:59;3.60;;;1.37;;
68870;SDS011;55906;52.278;6.808;2022-08-06T09:06:28;3.00;;;1.30;;
68870;SDS011;55906;52.278;6.808;2022-08-06T09:08:55;4.03;;;1.58;;
68870;SDS011;55906;52.278;6.808;2022-08-06T09:11:28;3.75;;;1.20;;
68870;SDS011;55906;52.278;6.808;2022-08-06T09:13:54;5.22;;;1.63;;
68870;SDS011;55906;52.278;6.808;2022-08-06T09:16:21;4.40;;;1.30;;
68870;SDS011;55906;52.278;6.808;2022-08-06T09:18:47;5.05;;;1.30;;
68870;SDS011;55906;52.278;6.808;2022-08-06T09:21:15;4.00;;;1.20;;
68870;SDS011;55906;52.278;6.808;2022-08-06T09:23:42;4.15;;;1.33;;
68870;SDS011;55906;52.278;6.808;2022-08-06T09:26:09;3.42;;;1.23;;
68870;SDS011;55906;52.278;6.808;2022-08-06T09:28:36;3.47;;;1.30;;
68870;SDS011;55906;52.278;6.808;2022-08-06T09:31:05;3.00;;;1.10;;
68870;SDS011;55906;52.278;6.808;2022-08-06T09:33:33;3.65;;;1.17;;
68870;SDS011;55906;52.278;6.808;2022-08-06T09:36:03;2.30;;;1.00;;
68870;SDS011;55906;52.278;6.808;2022-08-06T09:38:32;3.17;;;1.10;;
68870;SDS011;55906;52.278;6.808;2022-08-06T09:41:12;3.57;;;0.97;;
68870;SDS011;55906;52.278;6.808;2022-08-06T09:43:40;4.18;;;1.00;;
68870;SDS011;55906;52.278;6.808;2022-08-06T09:46:07;2.50;;;0.88;;
68870;SDS011;55906;52.278;6.808;2022-08-06T09:48:34;3.38;;;0.80;;
68870;SDS011;55906;52.278;6.808;2022-08-06T09:51:01;2.25;;;0.70;;
68870;SDS011;55906;52.278;6.808;2022-08-06T09:53:28;2.77;;;0.60;;
68870;SDS011;55906;52.278;6.808;2022-08-06T09:55:56;1.70;;;0.50;;
68870;SDS011;55906;52.278;6.808;2022-08-06T09:58:30;2.03;;;0.68;;
68870;SDS011;55906;52.278;6.808;2022-08-06T10:01:10;4.70;;;0.77;;
68870;SDS011;55906;52.278;6.808;2022-08-06T10:03:38;2.70;;;0.70;;
68870;SDS011;55906;52.278;6.808;2022-08-06T10:06:07;3.00;;;0.70;;
68870;SDS011;55906;52.278;6.808;2022-08-06T10:08:35;2.90;;;0.80;;
68870;SDS011;55906;52.278;6.808;2022-08-06T10:11:04;2.42;;;0.63;;
68870;SDS011;55906;52.278;6.808;2022-08-06T10:13:32;3.10;;;0.70;;
68870;SDS011;55906;52.278;6.808;2022-08-06T10:15:59;3.67;;;0.80;;
68870;SDS011;55906;52.278;6.808;2022-08-06T10:18:35;2.53;;;0.60;;
68870;SDS011;55906;52.278;6.808;2022-08-06T10:21:04;3.60;;;0.77;;
68870;SDS011;55906;52.278;6.808;2022-08-06T10:23:33;4.15;;;0.60;;
68870;SDS011;55906;52.278;6.808;2022-08-06T10:26:02;2.58;;;0.63;;
68870;SDS011;55906;52.278;6.808;2022-08-06T10:28:33;3.42;;;0.70;;
68870;SDS011;55906;52.278;6.808;2022-08-06T10:31:01;2.83;;;0.60;;
68870;SDS011;55906;52.278;6.808;2022-08-06T10:33:31;2.55;;;0.50;;
68870;SDS011;55906;52.278;6.808;2022-08-06T10:36:00;2.33;;;0.60;;
68870;SDS011;55906;52.278;6.808;2022-08-06T10:38:30;2.13;;;0.60;;
68870;SDS011;55906;52.278;6.808;2022-08-06T10:41:02;1.90;;;0.50;;
68870;SDS011;55906;52.278;6.808;2022-08-06T10:43:34;1.87;;;0.40;;
68870;SDS011;55906;52.278;6.808;2022-08-06T10:46:03;2.97;;;0.50;;
68870;SDS011;55906;52.278;6.808;2022-08-06T10:48:32;2.03;;;0.50;;
68870;SDS011;55906;52.278;6.808;2022-08-06T10:51:00;2.88;;;0.52;;
68870;SDS011;55906;52.278;6.808;2022-08-06T10:53:27;1.67;;;0.50;;
68870;SDS011;55906;52.278;6.808;2022-08-06T10:55:56;3.20;;;0.47;;
68870;SDS011;55906;52.278;6.808;2022-08-06T10:58:27;2.42;;;0.50;;
68870;SDS011;55906;52.278;6.808;2022-08-06T11:00:55;1.55;;;0.40;;
68870;SDS011;55906;52.278;6.808;2022-08-06T11:03:24;3.15;;;0.80;;
68870;SDS011;55906;52.278;6.808;2022-08-06T11:05:59;2.35;;;0.50;;
68870;SDS011;55906;52.278;6.808;2022-08-06T11:08:41;4.33;;;0.70;;
68870;SDS011;55906;52.278;6.808;2022-08-06T11:11:19;3.20;;;0.60;;
68870;SDS011;55906;52.278;6.808;2022-08-06T11:14:00;1.92;;;0.50;;
68870;SDS011;55906;52.278;6.808;2022-08-06T11:16:29;2.42;;;0.50;;
68870;SDS011;55906;52.278;6.808;2022-08-06T11:19:01;3.92;;;0.80;;
68870;SDS011;55906;52.278;6.808;2022-08-06T11:21:41;2.00;;;0.60;;
68870;SDS011;55906;52.278;6.808;2022-08-06T11:24:09;2.13;;;0.57;;
68870;SDS011;55906;52.278;6.808;2022-08-06T11:26:38;2.63;;;0.82;;
68870;SDS011;55906;52.278;6.808;2022-08-06T11:29:10;3.25;;;0.50;;
68870;SDS011;55906;52.278;6.808;2022-08-06T11:31:39;2.50;;;0.50;;
68870;SDS011;55906;52.278;6.808;2022-08-06T11:34:09;2.60;;;0.60;;
68870;SDS011;55906;52.278;6.808;2022-08-06T11:36:43;3.30;;;0.60;;
68870;SDS011;55906;52.278;6.808;2022-08-06T11:39:18;2.13;;;0.70;;
68870;SDS011;55906;52.278;6.808;2022-08-06T11:41:47;2.08;;;0.57;;
68870;SDS011;55906;52.278;6.808;2022-08-06T11:44:21;1.98;;;0.50;;
68870;SDS011;55906;52.278;6.808;2022-08-06T11:46:48;3.10;;;0.43;;
68870;SDS011;55906;52.278;6.808;2022-08-06T11:49:34;1.88;;;0.52;;
68870;SDS011;55906;52.278;6.808;2022-08-06T11:52:02;1.77;;;0.50;;
68870;SDS011;55906;52.278;6.808;2022-08-06T11:54:29;2.55;;;0.60;;
68870;SDS011;55906;52.278;6.808;2022-08-06T12:00:07;2.00;;;0.40;;
68870;SDS011;55906;52.278;6.808;2022-08-06T12:02:45;1.80;;;0.40;;
68870;SDS011;55906;52.278;6.808;2022-08-06T12:05:34;4.65;;;1.10;;
68870;SDS011;55906;52.278;6.808;2022-08-06T12:08:24;2.13;;;0.52;;
68870;SDS011;55906;52.278;6.808;2022-08-06T12:13:49;1.97;;;0.50;;
68870;SDS011;55906;52.278;6.808;2022-08-06T12:19:12;2.83;;;0.50;;
68870;SDS011;55906;52.278;6.808;2022-08-06T12:21:40;2.03;;;0.40;;
68870;SDS011;55906;52.278;6.808;2022-08-06T12:24:08;2.33;;;0.40;;
68870;SDS011;55906;52.278;6.808;2022-08-06T12:26:36;3.83;;;0.70;;
68870;SDS011;55906;52.278;6.808;2022-08-06T12:29:03;2.85;;;0.75;;
68870;SDS011;55906;52.278;6.808;2022-08-06T12:31:33;2.38;;;0.60;;
68870;SDS011;55906;52.278;6.808;2022-08-06T12:34:02;2.95;;;0.68;;
68870;SDS011;55906;52.278;6.808;2022-08-06T12:36:30;2.83;;;0.85;;
68870;SDS011;55906;52.278;6.808;2022-08-06T12:39:00;2.20;;;0.70;;
68870;SDS011;55906;52.278;6.808;2022-08-06T12:41:33;2.72;;;0.80;;
68870;SDS011;55906;52.278;6.808;2022-08-06T12:44:06;2.80;;;0.75;;
68870;SDS011;55906;52.278;6.808;2022-08-06T12:46:33;2.40;;;0.70;;
68870;SDS011;55906;52.278;6.808;2022-08-06T12:49:00;2.85;;;1.13;;
68870;SDS011;55906;52.278;6.808;2022-08-06T12:51:28;3.00;;;1.10;;
68870;SDS011;55906;52.278;6.808;2022-08-06T12:53:56;3.20;;;1.15;;
68870;SDS011;55906;52.278;6.808;2022-08-06T12:56:25;4.35;;;1.25;;
68870;SDS011;55906;52.278;6.808;2022-08-06T12:58:53;3.00;;;1.00;;
68870;SDS011;55906;52.278;6.808;2022-08-06T13:01:21;3.15;;;1.00;;
68870;SDS011;55906;52.278;6.808;2022-08-06T13:03:51;3.23;;;1.20;;
68870;SDS011;55906;52.278;6.808;2022-08-06T13:06:21;3.53;;;1.30;;
68870;SDS011;55906;52.278;6.808;2022-08-06T13:08:52;2.90;;;1.20;;
68870;SDS011;55906;52.278;6.808;2022-08-06T13:11:20;3.08;;;1.20;;
68870;SDS011;55906;52.278;6.808;2022-08-06T13:13:55;2.85;;;1.15;;
68870;SDS011;55906;52.278;6.808;2022-08-06T13:16:23;3.27;;;1.33;;
68870;SDS011;55906;52.278;6.808;2022-08-06T13:19:04;4.00;;;1.10;;
68870;SDS011;55906;52.278;6.808;2022-08-06T13:21:32;3.95;;;1.33;;
68870;SDS011;55906;52.278;6.808;2022-08-06T13:24:02;2.78;;;1.10;;
68870;SDS011;55906;52.278;6.808;2022-08-06T13:26:30;4.25;;;1.38;;
68870;SDS011;55906;52.278;6.808;2022-08-06T13:29:08;3.27;;;1.27;;
68870;SDS011;55906;52.278;6.808;2022-08-06T13:31:37;4.75;;;1.70;;
68870;SDS011;55906;52.278;6.808;2022-08-06T13:34:06;3.60;;;1.45;;
68870;SDS011;55906;52.278;6.808;2022-08-06T13:36:35;4.35;;;1.70;;
68870;SDS011;55906;52.278;6.808;2022-08-06T13:39:18;3.42;;;1.50;;
68870;SDS011;55906;52.278;6.808;2022-08-06T13:41:45;3.10;;;1.47;;
68870;SDS011;55906;52.278;6.808;2022-08-06T13:44:28;3.78;;;1.80;;
68870;SDS011;55906;52.278;6.808;2022-08-06T13:46:56;3.28;;;1.55;;
68870;SDS011;55906;52.278;6.808;2022-08-06T13:49:24;3.30;;;1.50;;
68870;SDS011;55906;52.278;6.808;2022-08-06T13:51:52;3.75;;;1.60;;
68870;SDS011;55906;52.278;6.808;2022-08-06T13:54:20;3.33;;;1.50;;
68870;SDS011;55906;52.278;6.808;2022-08-06T13:56:48;4.13;;;1.80;;
68870;SDS011;55906;52.278;6.808;2022-08-06T13:59:15;4.60;;;1.60;;
68870;SDS011;55906;52.278;6.808;2022-08-06T14:01:42;3.47;;;1.30;;
68870;SDS011;55906;52.278;6.808;2022-08-06T14:04:09;4.10;;;1.38;;
68870;SDS011;55906;52.278;6.808;2022-08-06T14:06:36;3.40;;;1.50;;
68870;SDS011;55906;52.278;6.808;2022-08-06T14:09:03;3.90;;;1.45;;
68870;SDS011;55906;52.278;6.808;2022-08-06T14:11:31;3.92;;;1.50;;
68870;SDS011;55906;52.278;6.808;2022-08-06T14:13:57;3.40;;;1.30;;
68870;SDS011;55906;52.278;6.808;2022-08-06T14:16:24;3.40;;;1.33;;
68870;SDS011;55906;52.278;6.808;2022-08-06T14:18:50;3.67;;;1.40;;
68870;SDS011;55906;52.278;6.808;2022-08-06T14:21:17;3.90;;;1.83;;
68870;SDS011;55906;52.278;6.808;2022-08-06T14:23:43;3.67;;;1.30;;
68870;SDS011;55906;52.278;6.808;2022-08-06T14:26:10;3.50;;;1.20;;
68870;SDS011;55906;52.278;6.808;2022-08-06T14:28:38;3.45;;;1.30;;
68870;SDS011;55906;52.278;6.808;2022-08-06T14:31:05;3.30;;;1.10;;
68870;SDS011;55906;52.278;6.808;2022-08-06T14:33:31;3.88;;;1.40;;
68870;SDS011;55906;52.278;6.808;2022-08-06T14:35:58;3.53;;;1.10;;
68870;SDS011;55906;52.278;6.808;2022-08-06T14:38:24;3.65;;;1.13;;
68870;SDS011;55906;52.278;6.808;2022-08-06T14:40:51;3.28;;;1.27;;
68870;SDS011;55906;52.278;6.808;2022-08-06T14:43:35;3.23;;;1.20;;
68870;SDS011;55906;52.278;6.808;2022-08-06T14:46:21;4.28;;;1.50;;
68870;SDS011;55906;52.278;6.808;2022-08-06T14:48:47;3.40;;;1.55;;
68870;SDS011;55906;52.278;6.808;2022-08-06T14:51:14;3.88;;;1.40;;
68870;SDS011;55906;52.278;6.808;2022-08-06T14:53:40;3.40;;;1.60;;
68870;SDS011;55906;52.278;6.808;2022-08-06T14:56:07;4.27;;;1.83;;
68870;SDS011;55906;52.278;6.808;2022-08-06T14:58:34;3.75;;;1.50;;
68870;SDS011;55906;52.278;6.808;2022-08-06T15:01:01;4.93;;;2.00;;
68870;SDS011;55906;52.278;6.808;2022-08-06T15:03:29;4.88;;;1.70;;
68870;SDS011;55906;52.278;6.808;2022-08-06T15:05:55;3.63;;;1.88;;
68870;SDS011;55906;52.278;6.808;2022-08-06T15:08:22;3.00;;;1.30;;
68870;SDS011;55906;52.278;6.808;2022-08-06T15:10:49;4.78;;;1.70;;
68870;SDS011;55906;52.278;6.808;2022-08-06T15:13:18;3.90;;;1.88;;
68870;SDS011;55906;52.278;6.808;2022-08-06T15:15:44;2.95;;;1.17;;